Mc Donald, Kansas
Current Conditions -  °F | °C
As of 6:35 AM on Saturday 20 Dec 2014 (Local Time) from KSYF Reporting Station
Clear Clear  
Wind Chill: 19°   Ceiling: Unl
Heat Index: 26°   Visibility: 10mi
Dew Point: 23°   Wind: 7mph
Humidity: 88%   Direction: 230°SW
Pressure: 30.02"   Gusts: NA
Location:  39.7854°N, 101.298°W
Report Text: KSYF 201235Z AUTO 23006KT 10SM CLR M03/M05 A3002 RMK AO2 T10321050
Loading
Personal Weather Stations






























Interactive Weather Map New forecast layout! Learn more

10-Day Weather Forecast

Advertisements
Track Severe Weather on mobile